sensor_id;sensor_type;location;lat;lon;timestamp;temperature;humidity
3528;DHT22;1778;47.966;7.854;2024-01-16T00:00:13;-3.40;99.90
3528;DHT22;1778;47.966;7.854;2024-01-16T00:01:15;-3.40;99.90
3528;DHT22;1778;47.966;7.854;2024-01-16T00:02:17;-3.40;99.90
3528;DHT22;1778;47.966;7.854;2024-01-16T00:03:19;-3.40;99.90
3528;DHT22;1778;47.966;7.854;2024-01-16T00:04:20;-3.40;99.90
3528;DHT22;1778;47.966;7.854;2024-01-16T00:05:21;-3.40;99.90
3528;DHT22;1778;47.966;7.854;2024-01-16T00:06:23;-3.40;99.90
3528;DHT22;1778;47.966;7.854;2024-01-16T00:07:24;-3.50;99.90
3528;DHT22;1778;47.966;7.854;2024-01-16T00:08:26;-3.50;99.90
3528;DHT22;1778;47.966;7.854;2024-01-16T00:09:28;-3.40;99.90
3528;DHT22;1778;47.966;7.854;2024-01-16T00:10:30;-3.50;99.90
3528;DHT22;1778;47.966;7.854;2024-01-16T00:11:32;-3.50;99.90
3528;DHT22;1778;47.966;7.854;2024-01-16T00:12:33;-3.50;99.90
3528;DHT22;1778;47.966;7.854;2024-01-16T00:13:35;-3.50;99.90
3528;DHT22;1778;47.966;7.854;2024-01-16T00:14:37;-3.50;99.90
3528;DHT22;1778;47.966;7.854;2024-01-16T00:15:38;-3.60;99.90
3528;DHT22;1778;47.966;7.854;2024-01-16T00:16:46;-3.60;99.90
3528;DHT22;1778;47.966;7.854;2024-01-16T00:17:48;-3.60;99.90
3528;DHT22;1778;47.966;7.854;2024-01-16T00:18:51;-3.60;99.90
3528;DHT22;1778;47.966;7.854;2024-01-16T00:19:53;-3.70;99.90
3528;DHT22;1778;47.966;7.854;2024-01-16T00:20:56;-3.70;99.90
3528;DHT22;1778;47.966;7.854;2024-01-16T00:21:57;-3.70;99.90
3528;DHT22;1778;47.966;7.854;2024-01-16T00:23:00;-3.70;99.90
3528;DHT22;1778;47.966;7.854;2024-01-16T00:24:01;-3.70;99.90
3528;DHT22;1778;47.966;7.854;2024-01-16T00:25:03;-3.70;99.90
3528;DHT22;1778;47.966;7.854;2024-01-16T00:26:05;-3.80;99.90
3528;DHT22;1778;47.966;7.854;2024-01-16T00:27:06;-3.80;99.90
3528;DHT22;1778;47.966;7.854;2024-01-16T00:28:11;-3.80;99.90
3528;DHT22;1778;47.966;7.854;2024-01-16T00:29:12;-3.80;99.90
3528;DHT22;1778;47.966;7.854;2024-01-16T00:30:14;-3.80;99.90
3528;DHT22;1778;47.966;7.854;2024-01-16T00:31:15;-3.90;99.90
3528;DHT22;1778;47.966;7.854;2024-01-16T00:32:17;-3.90;99.90
3528;DHT22;1778;47.966;7.854;2024-01-16T00:33:18;-3.90;99.90
3528;DHT22;1778;47.966;7.854;2024-01-16T00:34:20;-3.90;99.90
3528;DHT22;1778;47.966;7.854;2024-01-16T00:35:21;-3.90;99.90
3528;DHT22;1778;47.966;7.854;2024-01-16T00:36:23;-3.90;99.90
3528;DHT22;1778;47.966;7.854;2024-01-16T00:37:25;-3.90;99.90
3528;DHT22;1778;47.966;7.854;2024-01-16T00:38:26;-3.90;99.90
3528;DHT22;1778;47.966;7.854;2024-01-16T00:39:27;-4.00;99.90
3528;DHT22;1778;47.966;7.854;2024-01-16T00:40:29;-4.00;99.90
3528;DHT22;1778;47.966;7.854;2024-01-16T00:41:31;-4.00;99.90
3528;DHT22;1778;47.966;7.854;2024-01-16T00:42:32;-4.00;99.90
3528;DHT22;1778;47.966;7.854;2024-01-16T00:43:34;-4.00;99.90
3528;DHT22;1778;47.966;7.854;2024-01-16T00:44:36;-4.00;99.90
3528;DHT22;1778;47.966;7.854;2024-01-16T00:45:38;-4.00;99.90
3528;DHT22;1778;47.966;7.854;2024-01-16T00:46:40;-4.00;99.90
3528;DHT22;1778;47.966;7.854;2024-01-16T00:47:41;-4.10;99.90
3528;DHT22;1778;47.966;7.854;2024-01-16T00:48:43;-4.10;99.90
3528;DHT22;1778;47.966;7.854;2024-01-16T00:49:45;-4.00;99.90
3528;DHT22;1778;47.966;7.854;2024-01-16T00:50:46;-4.00;99.90
3528;DHT22;1778;47.966;7.854;2024-01-16T00:51:50;-4.00;99.90
3528;DHT22;1778;47.966;7.854;2024-01-16T00:52:52;-4.00;99.90
3528;DHT22;1778;47.966;7.854;2024-01-16T00:53:53;-4.00;99.90
3528;DHT22;1778;47.966;7.854;2024-01-16T00:54:55;-4.00;99.90
3528;DHT22;1778;47.966;7.854;2024-01-16T00:55:56;-4.00;99.90
3528;DHT22;1778;47.966;7.854;2024-01-16T00:56:58;-4.10;99.90
3528;DHT22;1778;47.966;7.854;2024-01-16T00:58:01;-4.10;99.90
3528;DHT22;1778;47.966;7.854;2024-01-16T00:59:02;-4.10;99.90
3528;DHT22;1778;47.966;7.854;2024-01-16T01:00:05;-4.10;99.90
3528;DHT22;1778;47.966;7.854;2024-01-16T01:01:07;-4.10;99.90
3528;DHT22;1778;47.966;7.854;2024-01-16T01:02:09;-4.10;99.90
3528;DHT22;1778;47.966;7.854;2024-01-16T01:03:13;-4.20;99.90
3528;DHT22;1778;47.966;7.854;2024-01-16T01:04:14;-4.20;99.90
3528;DHT22;1778;47.966;7.854;2024-01-16T01:05:16;-4.20;99.90
3528;DHT22;1778;47.966;7.854;2024-01-16T01:06:18;-4.20;99.90
3528;DHT22;1778;47.966;7.854;2024-01-16T01:07:19;-4.20;99.90
3528;DHT22;1778;47.966;7.854;2024-01-16T01:08:20;-4.20;99.90
3528;DHT22;1778;47.966;7.854;2024-01-16T01:09:22;-4.20;99.90
3528;DHT22;1778;47.966;7.854;2024-01-16T01:10:24;-4.20;99.90
3528;DHT22;1778;47.966;7.854;2024-01-16T01:11:25;-4.20;99.90
3528;DHT22;1778;47.966;7.854;2024-01-16T01:12:27;-4.20;99.90
3528;DHT22;1778;47.966;7.854;2024-01-16T01:13:28;-4.20;99.90
3528;DHT22;1778;47.966;7.854;2024-01-16T01:14:30;-4.20;99.90
3528;DHT22;1778;47.966;7.854;2024-01-16T01:15:32;-4.20;99.90
3528;DHT22;1778;47.966;7.854;2024-01-16T01:16:34;-4.20;99.90
3528;DHT22;1778;47.966;7.854;2024-01-16T01:17:35;-4.20;99.90
3528;DHT22;1778;47.966;7.854;2024-01-16T01:18:37;-4.20;99.90
3528;DHT22;1778;47.966;7.854;2024-01-16T01:19:39;-4.20;99.90
3528;DHT22;1778;47.966;7.854;2024-01-16T01:20:40;-4.20;99.90
3528;DHT22;1778;47.966;7.854;2024-01-16T01:21:42;-4.20;99.90
3528;DHT22;1778;47.966;7.854;2024-01-16T01:22:44;-4.20;99.90
3528;DHT22;1778;47.966;7.854;2024-01-16T01:23:46;-4.20;99.90
3528;DHT22;1778;47.966;7.854;2024-01-16T01:24:47;-4.20;99.90
3528;DHT22;1778;47.966;7.854;2024-01-16T01:25:48;-4.20;99.90
3528;DHT22;1778;47.966;7.854;2024-01-16T01:26:50;-4.20;99.90
3528;DHT22;1778;47.966;7.854;2024-01-16T01:27:52;-4.20;99.90
3528;DHT22;1778;47.966;7.854;2024-01-16T01:28:53;-4.30;99.90
3528;DHT22;1778;47.966;7.854;2024-01-16T01:29:55;-4.30;99.90
3528;DHT22;1778;47.966;7.854;2024-01-16T01:30:56;-4.20;99.90
3528;DHT22;1778;47.966;7.854;2024-01-16T01:31:58;-4.20;99.90
3528;DHT22;1778;47.966;7.854;2024-01-16T01:33:00;-4.20;99.90
3528;DHT22;1778;47.966;7.854;2024-01-16T01:34:01;-4.20;99.90
3528;DHT22;1778;47.966;7.854;2024-01-16T01:35:04;-4.30;99.90
3528;DHT22;1778;47.966;7.854;2024-01-16T01:36:06;-4.30;99.90
3528;DHT22;1778;47.966;7.854;2024-01-16T01:37:07;-4.30;99.90
3528;DHT22;1778;47.966;7.854;2024-01-16T01:38:09;-4.30;99.90
3528;DHT22;1778;47.966;7.854;2024-01-16T01:39:11;-4.40;99.90
3528;DHT22;1778;47.966;7.854;2024-01-16T01:40:12;-4.40;99.90
3528;DHT22;1778;47.966;7.854;2024-01-16T01:41:17;-4.40;99.90
3528;DHT22;1778;47.966;7.854;2024-01-16T01:42:18;-4.30;99.90
3528;DHT22;1778;47.966;7.854;2024-01-16T01:43:21;-4.30;99.90
3528;DHT22;1778;47.966;7.854;2024-01-16T01:44:24;-4.30;99.90
3528;DHT22;1778;47.966;7.854;2024-01-16T01:45:26;-4.40;99.90
3528;DHT22;1778;47.966;7.854;2024-01-16T01:46:27;-4.40;99.90
3528;DHT22;1778;47.966;7.854;2024-01-16T01:47:30;-4.50;99.90
3528;DHT22;1778;47.966;7.854;2024-01-16T01:48:32;-4.50;99.90
3528;DHT22;1778;47.966;7.854;2024-01-16T01:49:34;-4.40;99.90
3528;DHT22;1778;47.966;7.854;2024-01-16T01:50:36;-4.50;99.90
3528;DHT22;1778;47.966;7.854;2024-01-16T01:51:38;-4.50;99.90
3528;DHT22;1778;47.966;7.854;2024-01-16T01:52:40;-4.50;99.90
3528;DHT22;1778;47.966;7.854;2024-01-16T01:53:44;-4.50;99.90
3528;DHT22;1778;47.966;7.854;2024-01-16T01:54:46;-4.50;99.90
3528;DHT22;1778;47.966;7.854;2024-01-16T01:55:48;-4.60;99.90
3528;DHT22;1778;47.966;7.854;2024-01-16T01:56:50;-4.50;99.90
3528;DHT22;1778;47.966;7.854;2024-01-16T01:57:52;-4.60;99.90
3528;DHT22;1778;47.966;7.854;2024-01-16T01:58:56;-4.60;99.90
3528;DHT22;1778;47.966;7.854;2024-01-16T01:59:59;-4.50;99.90
3528;DHT22;1778;47.966;7.854;2024-01-16T02:01:02;-4.50;99.90
3528;DHT22;1778;47.966;7.854;2024-01-16T02:02:05;-4.50;99.90
3528;DHT22;1778;47.966;7.854;2024-01-16T02:03:07;-4.50;99.90
3528;DHT22;1778;47.966;7.854;2024-01-16T02:04:08;-4.60;99.90
3528;DHT22;1778;47.966;7.854;2024-01-16T02:05:11;-4.60;99.90
3528;DHT22;1778;47.966;7.854;2024-01-16T02:06:14;-4.60;99.90
3528;DHT22;1778;47.966;7.854;2024-01-16T02:07:17;-4.60;99.90
3528;DHT22;1778;47.966;7.854;2024-01-16T02:08:19;-4.60;99.90
3528;DHT22;1778;47.966;7.854;2024-01-16T02:09:20;-4.60;99.90
3528;DHT22;1778;47.966;7.854;2024-01-16T02:10:22;-4.60;99.90
3528;DHT22;1778;47.966;7.854;2024-01-16T02:11:24;-4.60;99.90
3528;DHT22;1778;47.966;7.854;2024-01-16T02:12:25;-4.70;99.90
3528;DHT22;1778;47.966;7.854;2024-01-16T02:13:28;-4.70;99.90
3528;DHT22;1778;47.966;7.854;2024-01-16T02:14:29;-4.70;99.90
3528;DHT22;1778;47.966;7.854;2024-01-16T02:15:31;-4.70;99.90
3528;DHT22;1778;47.966;7.854;2024-01-16T02:16:37;-4.60;99.90
3528;DHT22;1778;47.966;7.854;2024-01-16T02:17:39;-4.60;99.90
3528;DHT22;1778;47.966;7.854;2024-01-16T02:18:41;-4.60;99.90
3528;DHT22;1778;47.966;7.854;2024-01-16T02:19:42;-4.60;99.90
3528;DHT22;1778;47.966;7.854;2024-01-16T02:20:45;-4.70;99.90
3528;DHT22;1778;47.966;7.854;2024-01-16T02:21:49;-4.70;99.90
3528;DHT22;1778;47.966;7.854;2024-01-16T02:22:54;-4.70;99.90
3528;DHT22;1778;47.966;7.854;2024-01-16T02:23:56;-4.70;99.90
3528;DHT22;1778;47.966;7.854;2024-01-16T02:24:58;-4.80;99.90
3528;DHT22;1778;47.966;7.854;2024-01-16T02:26:00;-4.80;99.90
3528;DHT22;1778;47.966;7.854;2024-01-16T02:27:03;-4.70;99.90
3528;DHT22;1778;47.966;7.854;2024-01-16T02:28:05;-4.70;99.90
3528;DHT22;1778;47.966;7.854;2024-01-16T02:29:06;-4.70;99.90
3528;DHT22;1778;47.966;7.854;2024-01-16T02:30:08;-4.70;99.90
3528;DHT22;1778;47.966;7.854;2024-01-16T02:31:10;-4.70;99.90
3528;DHT22;1778;47.966;7.854;2024-01-16T02:32:13;-4.70;99.90
3528;DHT22;1778;47.966;7.854;2024-01-16T02:33:15;-4.70;99.90
3528;DHT22;1778;47.966;7.854;2024-01-16T02:34:16;-4.70;99.90
3528;DHT22;1778;47.966;7.854;2024-01-16T02:35:18;-4.70;99.90
3528;DHT22;1778;47.966;7.854;2024-01-16T02:36:19;-4.70;99.90
3528;DHT22;1778;47.966;7.854;2024-01-16T02:37:21;-4.70;99.90
3528;DHT22;1778;47.966;7.854;2024-01-16T02:38:23;-4.70;99.90
3528;DHT22;1778;47.966;7.854;2024-01-16T02:39:25;-4.80;99.90
3528;DHT22;1778;47.966;7.854;2024-01-16T02:40:27;-4.80;99.90
3528;DHT22;1778;47.966;7.854;2024-01-16T02:41:28;-4.80;99.90
3528;DHT22;1778;47.966;7.854;2024-01-16T02:42:30;-4.80;99.90
3528;DHT22;1778;47.966;7.854;2024-01-16T02:43:32;-4.80;99.90
3528;DHT22;1778;47.966;7.854;2024-01-16T02:44:34;-4.80;99.90
3528;DHT22;1778;47.966;7.854;2024-01-16T02:45:35;-4.80;99.90
3528;DHT22;1778;47.966;7.854;2024-01-16T02:46:37;-4.70;99.90
3528;DHT22;1778;47.966;7.854;2024-01-16T02:47:40;-4.70;99.90
3528;DHT22;1778;47.966;7.854;2024-01-16T02:48:42;-4.80;99.90
3528;DHT22;1778;47.966;7.854;2024-01-16T02:49:43;-4.80;99.90
3528;DHT22;1778;47.966;7.854;2024-01-16T02:50:45;-4.80;99.90
3528;DHT22;1778;47.966;7.854;2024-01-16T02:51:46;-4.90;99.90
3528;DHT22;1778;47.966;7.854;2024-01-16T02:52:48;-4.90;99.90
3528;DHT22;1778;47.966;7.854;2024-01-16T02:53:50;-4.90;99.90
3528;DHT22;1778;47.966;7.854;2024-01-16T02:54:51;-4.90;99.90
3528;DHT22;1778;47.966;7.854;2024-01-16T02:55:52;-4.90;99.90
3528;DHT22;1778;47.966;7.854;2024-01-16T02:56:54;-4.80;99.90
3528;DHT22;1778;47.966;7.854;2024-01-16T02:57:56;-4.90;99.90
3528;DHT22;1778;47.966;7.854;2024-01-16T02:58:57;-4.80;99.90
3528;DHT22;1778;47.966;7.854;2024-01-16T02:59:58;-4.80;99.90
3528;DHT22;1778;47.966;7.854;2024-01-16T03:01:00;-4.80;99.90
3528;DHT22;1778;47.966;7.854;2024-01-16T03:02:02;-4.80;99.90
3528;DHT22;1778;47.966;7.854;2024-01-16T03:03:04;-4.80;99.90
3528;DHT22;1778;47.966;7.854;2024-01-16T03:04:06;-4.90;99.90
3528;DHT22;1778;47.966;7.854;2024-01-16T03:05:08;-4.80;99.90
3528;DHT22;1778;47.966;7.854;2024-01-16T03:06:09;-4.90;99.90
3528;DHT22;1778;47.966;7.854;2024-01-16T03:07:11;-4.80;99.90
3528;DHT22;1778;47.966;7.854;2024-01-16T03:08:13;-4.80;99.90
3528;DHT22;1778;47.966;7.854;2024-01-16T03:09:15;-4.90;99.90
3528;DHT22;1778;47.966;7.854;2024-01-16T03:10:17;-4.90;99.90
3528;DHT22;1778;47.966;7.854;2024-01-16T03:11:18;-4.90;99.90
3528;DHT22;1778;47.966;7.854;2024-01-16T03:12:20;-5.00;99.90
3528;DHT22;1778;47.966;7.854;2024-01-16T03:13:21;-5.00;99.90
3528;DHT22;1778;47.966;7.854;2024-01-16T03:14:23;-5.00;99.90
3528;DHT22;1778;47.966;7.854;2024-01-16T03:15:25;-5.00;99.90
3528;DHT22;1778;47.966;7.854;2024-01-16T03:16:27;-4.90;99.90
3528;DHT22;1778;47.966;7.854;2024-01-16T03:17:29;-5.00;99.90
3528;DHT22;1778;47.966;7.854;2024-01-16T03:18:30;-4.90;99.90
3528;DHT22;1778;47.966;7.854;2024-01-16T03:19:33;-4.90;99.90
3528;DHT22;1778;47.966;7.854;2024-01-16T03:20:34;-4.90;99.90
3528;DHT22;1778;47.966;7.854;2024-01-16T03:21:36;-4.90;99.90
3528;DHT22;1778;47.966;7.854;2024-01-16T03:22:38;-5.00;99.90
3528;DHT22;1778;47.966;7.854;2024-01-16T03:23:39;-5.00;99.90
3528;DHT22;1778;47.966;7.854;2024-01-16T03:24:41;-4.90;99.90
3528;DHT22;1778;47.966;7.854;2024-01-16T03:25:42;-5.00;99.90
3528;DHT22;1778;47.966;7.854;2024-01-16T03:26:44;-5.00;99.90
3528;DHT22;1778;47.966;7.854;2024-01-16T03:27:45;-5.00;99.90
3528;DHT22;1778;47.966;7.854;2024-01-16T03:28:47;-4.90;99.90
3528;DHT22;1778;47.966;7.854;2024-01-16T03:29:48;-5.00;99.90
3528;DHT22;1778;47.966;7.854;2024-01-16T03:30:50;-5.00;99.90
3528;DHT22;1778;47.966;7.854;2024-01-16T03:31:52;-5.00;99.90
3528;DHT22;1778;47.966;7.854;2024-01-16T03:32:54;-5.00;99.90
3528;DHT22;1778;47.966;7.854;2024-01-16T03:33:55;-5.00;99.90
3528;DHT22;1778;47.966;7.854;2024-01-16T03:34:57;-5.00;99.90
3528;DHT22;1778;47.966;7.854;2024-01-16T03:35:59;-5.00;99.90
3528;DHT22;1778;47.966;7.854;2024-01-16T03:37:00;-5.00;99.90
3528;DHT22;1778;47.966;7.854;2024-01-16T03:38:02;-5.00;99.90
3528;DHT22;1778;47.966;7.854;2024-01-16T03:39:03;-5.00;99.90
3528;DHT22;1778;47.966;7.854;2024-01-16T03:40:05;-5.00;99.90
3528;DHT22;1778;47.966;7.854;2024-01-16T03:41:10;-5.00;99.90
3528;DHT22;1778;47.966;7.854;2024-01-16T03:42:12;-5.10;99.90
3528;DHT22;1778;47.966;7.854;2024-01-16T03:43:14;-5.10;99.90
3528;DHT22;1778;47.966;7.854;2024-01-16T03:44:15;-5.00;99.90
3528;DHT22;1778;47.966;7.854;2024-01-16T03:45:17;-5.00;99.90
3528;DHT22;1778;47.966;7.854;2024-01-16T03:46:19;-5.00;99.90
3528;DHT22;1778;47.966;7.854;2024-01-16T03:47:20;-5.00;99.90
3528;DHT22;1778;47.966;7.854;2024-01-16T03:48:22;-5.00;99.90
3528;DHT22;1778;47.966;7.854;2024-01-16T03:49:24;-5.10;99.90
3528;DHT22;1778;47.966;7.854;2024-01-16T03:50:26;-5.10;99.90
3528;DHT22;1778;47.966;7.854;2024-01-16T03:51:28;-5.10;99.90
3528;DHT22;1778;47.966;7.854;2024-01-16T03:52:30;-5.20;99.90
3528;DHT22;1778;47.966;7.854;2024-01-16T03:53:31;-5.10;99.90
3528;DHT22;1778;47.966;7.854;2024-01-16T03:54:33;-5.00;99.90
3528;DHT22;1778;47.966;7.854;2024-01-16T03:55:34;-5.00;99.90
3528;DHT22;1778;47.966;7.854;2024-01-16T03:56:35;-5.00;99.90
3528;DHT22;1778;47.966;7.854;2024-01-16T03:57:37;-5.00;99.90
3528;DHT22;1778;47.966;7.854;2024-01-16T03:58:40;-5.00;99.90
3528;DHT22;1778;47.966;7.854;2024-01-16T03:59:43;-5.00;99.90
3528;DHT22;1778;47.966;7.854;2024-01-16T04:00:45;-5.00;99.90
3528;DHT22;1778;47.966;7.854;2024-01-16T04:01:47;-5.00;99.90
3528;DHT22;1778;47.966;7.854;2024-01-16T04:02:50;-5.00;99.90
3528;DHT22;1778;47.966;7.854;2024-01-16T04:03:51;-5.10;99.90
3528;DHT22;1778;47.966;7.854;2024-01-16T04:04:53;-5.10;99.90
3528;DHT22;1778;47.966;7.854;2024-01-16T04:05:55;-5.00;99.90
3528;DHT22;1778;47.966;7.854;2024-01-16T04:06:56;-5.00;99.90
3528;DHT22;1778;47.966;7.854;2024-01-16T04:07:58;-5.00;99.90
3528;DHT22;1778;47.966;7.854;2024-01-16T04:09:00;-5.00;99.90
3528;DHT22;1778;47.966;7.854;2024-01-16T04:10:02;-5.00;99.90
3528;DHT22;1778;47.966;7.854;2024-01-16T04:11:11;-5.00;99.90
3528;DHT22;1778;47.966;7.854;2024-01-16T04:12:13;-5.00;99.90
3528;DHT22;1778;47.966;7.854;2024-01-16T04:13:14;-5.00;99.90
3528;DHT22;1778;47.966;7.854;2024-01-16T04:14:16;-5.00;99.90
3528;DHT22;1778;47.966;7.854;2024-01-16T04:15:18;-5.00;99.90
3528;DHT22;1778;47.966;7.854;2024-01-16T04:16:23;-4.90;99.90
3528;DHT22;1778;47.966;7.854;2024-01-16T04:17:24;-4.80;99.90
3528;DHT22;1778;47.966;7.854;2024-01-16T04:18:26;-4.90;99.90
3528;DHT22;1778;47.966;7.854;2024-01-16T04:19:27;-4.90;99.90
3528;DHT22;1778;47.966;7.854;2024-01-16T04:20:30;-4.90;99.90
3528;DHT22;1778;47.966;7.854;2024-01-16T04:21:31;-5.00;99.90
3528;DHT22;1778;47.966;7.854;2024-01-16T04:22:33;-5.00;99.90
3528;DHT22;1778;47.966;7.854;2024-01-16T04:23:34;-5.00;99.90
3528;DHT22;1778;47.966;7.854;2024-01-16T04:24:36;-5.00;99.90
3528;DHT22;1778;47.966;7.854;2024-01-16T04:25:37;-4.90;99.90
3528;DHT22;1778;47.966;7.854;2024-01-16T04:26:39;-4.90;99.90
3528;DHT22;1778;47.966;7.854;2024-01-16T04:27:41;-4.90;99.90
3528;DHT22;1778;47.966;7.854;2024-01-16T04:28:42;-4.90;99.90
3528;DHT22;1778;47.966;7.854;2024-01-16T04:29:44;-4.90;99.90
3528;DHT22;1778;47.966;7.854;2024-01-16T04:30:46;-4.90;99.90
3528;DHT22;1778;47.966;7.854;2024-01-16T04:31:48;-4.90;99.90
3528;DHT22;1778;47.966;7.854;2024-01-16T04:32:49;-4.80;99.90
3528;DHT22;1778;47.966;7.854;2024-01-16T04:33:51;-4.90;99.90
3528;DHT22;1778;47.966;7.854;2024-01-16T04:34:53;-4.90;99.90
3528;DHT22;1778;47.966;7.854;2024-01-16T04:35:55;-4.90;99.90
3528;DHT22;1778;47.966;7.854;2024-01-16T04:36:56;-4.90;99.90
3528;DHT22;1778;47.966;7.854;2024-01-16T04:37:58;-4.90;99.90
3528;DHT22;1778;47.966;7.854;2024-01-16T04:38:59;-4.90;99.90
3528;DHT22;1778;47.966;7.854;2024-01-16T04:40:01;-4.90;99.90
3528;DHT22;1778;47.966;7.854;2024-01-16T04:41:03;-4.90;99.90
3528;DHT22;1778;47.966;7.854;2024-01-16T04:42:04;-4.90;99.90
3528;DHT22;1778;47.966;7.854;2024-01-16T04:43:06;-4.90;99.90
3528;DHT22;1778;47.966;7.854;2024-01-16T04:44:07;-4.90;99.90
3528;DHT22;1778;47.966;7.854;2024-01-16T04:45:09;-5.00;99.90
3528;DHT22;1778;47.966;7.854;2024-01-16T04:46:10;-5.00;99.90
3528;DHT22;1778;47.966;7.854;2024-01-16T04:47:12;-5.00;99.90
3528;DHT22;1778;47.966;7.854;2024-01-16T04:48:13;-5.00;99.90
3528;DHT22;1778;47.966;7.854;2024-01-16T04:49:15;-4.90;99.90
3528;DHT22;1778;47.966;7.854;2024-01-16T04:50:16;-4.90;99.90
3528;DHT22;1778;47.966;7.854;2024-01-16T04:51:18;-4.90;99.90
3528;DHT22;1778;47.966;7.854;2024-01-16T04:52:19;-4.90;99.90
3528;DHT22;1778;47.966;7.854;2024-01-16T04:53:21;-4.90;99.90
3528;DHT22;1778;47.966;7.854;2024-01-16T04:54:23;-4.90;99.90
3528;DHT22;1778;47.966;7.854;2024-01-16T04:55:24;-4.90;99.90
3528;DHT22;1778;47.966;7.854;2024-01-16T04:56:25;-4.90;99.90
3528;DHT22;1778;47.966;7.854;2024-01-16T04:57:27;-4.90;99.90
3528;DHT22;1778;47.966;7.854;2024-01-16T04:58:28;-4.90;99.90
3528;DHT22;1778;47.966;7.854;2024-01-16T04:59:29;-4.90;99.90
3528;DHT22;1778;47.966;7.854;2024-01-16T05:00:32;-4.90;99.90
3528;DHT22;1778;47.966;7.854;2024-01-16T05:01:33;-4.90;99.90
3528;DHT22;1778;47.966;7.854;2024-01-16T05:02:35;-4.90;99.90
3528;DHT22;1778;47.966;7.854;2024-01-16T05:03:36;-4.90;99.90
3528;DHT22;1778;47.966;7.854;2024-01-16T05:04:38;-4.90;99.90
3528;DHT22;1778;47.966;7.854;2024-01-16T05:05:39;-4.90;99.90
3528;DHT22;1778;47.966;7.854;2024-01-16T05:06:41;-4.90;99.90
3528;DHT22;1778;47.966;7.854;2024-01-16T05:07:43;-4.90;99.90
3528;DHT22;1778;47.966;7.854;2024-01-16T05:08:44;-4.90;99.90
3528;DHT22;1778;47.966;7.854;2024-01-16T05:09:46;-4.90;99.90
3528;DHT22;1778;47.966;7.854;2024-01-16T05:10:48;-4.80;99.90
3528;DHT22;1778;47.966;7.854;2024-01-16T05:11:49;-4.80;99.90
3528;DHT22;1778;47.966;7.854;2024-01-16T05:12:51;-4.90;99.90
3528;DHT22;1778;47.966;7.854;2024-01-16T05:13:53;-4.90;99.90
3528;DHT22;1778;47.966;7.854;2024-01-16T05:14:59;-4.90;99.90
3528;DHT22;1778;47.966;7.854;2024-01-16T05:16:01;-4.90;99.90
3528;DHT22;1778;47.966;7.854;2024-01-16T05:17:03;-4.90;99.90
3528;DHT22;1778;47.966;7.854;2024-01-16T05:18:04;-4.90;99.90
3528;DHT22;1778;47.966;7.854;2024-01-16T05:19:06;-5.00;99.90
3528;DHT22;1778;47.966;7.854;2024-01-16T05:20:08;-5.00;99.90
3528;DHT22;1778;47.966;7.854;2024-01-16T05:21:11;-5.00;99.90
3528;DHT22;1778;47.966;7.854;2024-01-16T05:22:13;-5.00;99.90
3528;DHT22;1778;47.966;7.854;2024-01-16T05:23:14;-5.00;99.90
3528;DHT22;1778;47.966;7.854;2024-01-16T05:24:16;-5.00;99.90
3528;DHT22;1778;47.966;7.854;2024-01-16T05:25:17;-5.00;99.90
3528;DHT22;1778;47.966;7.854;2024-01-16T05:26:19;-5.00;99.90
3528;DHT22;1778;47.966;7.854;2024-01-16T05:27:21;-5.00;99.90
3528;DHT22;1778;47.966;7.854;2024-01-16T05:28:23;-5.00;99.90
3528;DHT22;1778;47.966;7.854;2024-01-16T05:29:24;-5.00;99.90
3528;DHT22;1778;47.966;7.854;2024-01-16T05:30:26;-5.00;99.90
3528;DHT22;1778;47.966;7.854;2024-01-16T05:31:28;-5.00;99.90
3528;DHT22;1778;47.966;7.854;2024-01-16T05:32:29;-5.00;99.90
3528;DHT22;1778;47.966;7.854;2024-01-16T05:33:31;-5.00;99.90
3528;DHT22;1778;47.966;7.854;2024-01-16T05:34:33;-4.90;99.90
3528;DHT22;1778;47.966;7.854;2024-01-16T05:35:35;-4.90;99.90
3528;DHT22;1778;47.966;7.854;2024-01-16T05:36:36;-4.90;99.90
3528;DHT22;1778;47.966;7.854;2024-01-16T05:37:38;-4.90;99.90
3528;DHT22;1778;47.966;7.854;2024-01-16T05:38:40;-4.90;99.90
3528;DHT22;1778;47.966;7.854;2024-01-16T05:39:41;-5.00;99.90
3528;DHT22;1778;47.966;7.854;2024-01-16T05:40:43;-5.00;99.90
3528;DHT22;1778;47.966;7.854;2024-01-16T05:41:45;-5.00;99.90
3528;DHT22;1778;47.966;7.854;2024-01-16T05:42:46;-5.00;99.90
3528;DHT22;1778;47.966;7.854;2024-01-16T05:43:47;-5.00;99.90
3528;DHT22;1778;47.966;7.854;2024-01-16T05:44:49;-5.00;99.90
3528;DHT22;1778;47.966;7.854;2024-01-16T05:45:51;-5.00;99.90
3528;DHT22;1778;47.966;7.854;2024-01-16T05:46:53;-5.00;99.90
3528;DHT22;1778;47.966;7.854;2024-01-16T05:47:55;-5.10;99.90
3528;DHT22;1778;47.966;7.854;2024-01-16T05:48:57;-5.10;99.90
3528;DHT22;1778;47.966;7.854;2024-01-16T05:49:59;-5.10;99.90
3528;DHT22;1778;47.966;7.854;2024-01-16T05:51:01;-5.10;99.90
3528;DHT22;1778;47.966;7.854;2024-01-16T05:52:02;-5.10;99.90
3528;DHT22;1778;47.966;7.854;2024-01-16T05:53:04;-5.10;99.90
3528;DHT22;1778;47.966;7.854;2024-01-16T05:54:05;-5.10;99.90
3528;DHT22;1778;47.966;7.854;2024-01-16T05:55:07;-5.10;99.90
3528;DHT22;1778;47.966;7.854;2024-01-16T05:56:09;-5.10;99.90
3528;DHT22;1778;47.966;7.854;2024-01-16T05:57:11;-5.10;99.90
3528;DHT22;1778;47.966;7.854;2024-01-16T05:58:12;-5.00;99.90
3528;DHT22;1778;47.966;7.854;2024-01-16T05:59:15;-5.10;99.90
3528;DHT22;1778;47.966;7.854;2024-01-16T06:00:17;-5.00;99.90
3528;DHT22;1778;47.966;7.854;2024-01-16T06:01:19;-5.00;99.90
3528;DHT22;1778;47.966;7.854;2024-01-16T06:02:21;-5.00;99.90
3528;DHT22;1778;47.966;7.854;2024-01-16T06:03:22;-5.10;99.90
3528;DHT22;1778;47.966;7.854;2024-01-16T06:04:23;-5.00;99.90
3528;DHT22;1778;47.966;7.854;2024-01-16T06:05:25;-5.10;99.90
3528;DHT22;1778;47.966;7.854;2024-01-16T06:06:27;-5.00;99.90
3528;DHT22;1778;47.966;7.854;2024-01-16T06:07:28;-5.10;99.90
3528;DHT22;1778;47.966;7.854;2024-01-16T06:08:30;-5.10;99.90
3528;DHT22;1778;47.966;7.854;2024-01-16T06:09:31;-5.10;99.90
3528;DHT22;1778;47.966;7.854;2024-01-16T06:10:33;-5.10;99.90
3528;DHT22;1778;47.966;7.854;2024-01-16T06:11:34;-5.10;99.90
3528;DHT22;1778;47.966;7.854;2024-01-16T06:12:38;-5.10;99.90
3528;DHT22;1778;47.966;7.854;2024-01-16T06:13:40;-5.10;99.90
3528;DHT22;1778;47.966;7.854;2024-01-16T06:14:41;-5.10;99.90
3528;DHT22;1778;47.966;7.854;2024-01-16T06:15:43;-5.10;99.90
3528;DHT22;1778;47.966;7.854;2024-01-16T06:16:44;-5.20;99.90
3528;DHT22;1778;47.966;7.854;2024-01-16T06:17:46;-5.20;99.90
3528;DHT22;1778;47.966;7.854;2024-01-16T06:18:48;-5.20;99.90
3528;DHT22;1778;47.966;7.854;2024-01-16T06:19:50;-5.20;99.90
3528;DHT22;1778;47.966;7.854;2024-01-16T06:20:52;-5.20;99.90
3528;DHT22;1778;47.966;7.854;2024-01-16T06:21:54;-5.20;99.90
3528;DHT22;1778;47.966;7.854;2024-01-16T06:22:56;-5.20;99.90
3528;DHT22;1778;47.966;7.854;2024-01-16T06:23:57;-5.20;99.90
3528;DHT22;1778;47.966;7.854;2024-01-16T06:24:59;-5.20;99.90
3528;DHT22;1778;47.966;7.854;2024-01-16T06:26:00;-5.20;99.90
3528;DHT22;1778;47.966;7.854;2024-01-16T06:27:04;-5.20;99.90
3528;DHT22;1778;47.966;7.854;2024-01-16T06:28:05;-5.20;99.90
3528;DHT22;1778;47.966;7.854;2024-01-16T06:29:08;-5.20;99.90
3528;DHT22;1778;47.966;7.854;2024-01-16T06:30:24;-5.20;99.90
3528;DHT22;1778;47.966;7.854;2024-01-16T06:31:26;-5.20;99.90
3528;DHT22;1778;47.966;7.854;2024-01-16T06:32:28;-5.20;99.90
3528;DHT22;1778;47.966;7.854;2024-01-16T06:33:30;-5.20;99.90
3528;DHT22;1778;47.966;7.854;2024-01-16T06:34:32;-5.20;99.90
3528;DHT22;1778;47.966;7.854;2024-01-16T06:35:34;-5.20;99.90
3528;DHT22;1778;47.966;7.854;2024-01-16T06:36:36;-5.20;99.90
3528;DHT22;1778;47.966;7.854;2024-01-16T06:37:37;-5.20;99.90
3528;DHT22;1778;47.966;7.854;2024-01-16T06:38:39;-5.20;99.90
3528;DHT22;1778;47.966;7.854;2024-01-16T06:39:41;-5.30;99.90
3528;DHT22;1778;47.966;7.854;2024-01-16T06:40:43;-5.30;99.90
3528;DHT22;1778;47.966;7.854;2024-01-16T06:41:44;-5.30;99.90
3528;DHT22;1778;47.966;7.854;2024-01-16T06:42:46;-5.30;99.90
3528;DHT22;1778;47.966;7.854;2024-01-16T06:43:48;-5.30;99.90